Time;durP1;ratioP1;P1;durP2;ratioP2;P2;SDS_P1;SDS_P2;PMS_P1;PMS_P2;Temp;Humidity;BMP_temperature;BMP_pressure;BME280_temperature;BME280_humidity;BME280_pressure;Samples;Min_cycle;Max_cycle;Signal;HPM_P1;HPM_P2
2023/09/12 00:00:07;;;;;;;9.75;4.30;;;;;;;;;;5054565;28;20045;-78
2023/09/12 00:02:59;;;;;;;8.82;4.63;;;;;;;;;;5040733;28;20049;-77
2023/09/12 00:05:53;;;;;;;9.20;4.35;;;;;;;;;;5054144;28;20053;-77
2023/09/12 00:08:39;;;;;;;15.68;5.25;;;;;;;;;;5032566;28;20414;-77
2023/09/12 00:11:25;;;;;;;9.73;4.82;;;;;;;;;;5054798;28;20471;-79
2023/09/12 00:14:14;;;;;;;8.35;4.20;;;;;;;;;;5053349;28;20084;-78
2023/09/12 00:17:00;;;;;;;8.68;4.70;;;;;;;;;;5054571;28;20041;-81
2023/09/12 00:19:45;;;;;;;14.98;5.05;;;;;;;;;;5052994;28;20044;-80
2023/09/12 00:22:30;;;;;;;14.50;5.05;;;;;;;;;;5053598;28;20048;-80
2023/09/12 00:25:16;;;;;;;9.90;4.70;;;;;;;;;;5053507;28;20045;-78
2023/09/12 00:28:02;;;;;;;8.65;4.00;;;;;;;;;;5054447;28;20048;-80
2023/09/12 00:30:48;;;;;;;9.45;4.70;;;;;;;;;;5022391;28;20479;-79
2023/09/12 00:33:34;;;;;;;9.77;4.50;;;;;;;;;;5024974;28;20053;-78
2023/09/12 00:36:19;;;;;;;10.73;4.80;;;;;;;;;;5039703;28;20041;-79
2023/09/12 00:39:04;;;;;;;9.93;4.85;;;;;;;;;;5039811;28;20045;-79
2023/09/12 00:41:50;;;;;;;9.82;4.50;;;;;;;;;;5025750;28;20045;-81
2023/09/12 00:44:35;;;;;;;7.18;4.55;;;;;;;;;;5034220;28;20038;-80
2023/09/12 00:47:22;;;;;;;9.30;4.53;;;;;;;;;;5039622;28;20049;-78
2023/09/12 00:50:08;;;;;;;9.73;4.63;;;;;;;;;;5025869;28;20045;-79
2023/09/12 00:52:54;;;;;;;8.60;4.82;;;;;;;;;;5011762;28;20049;-81
2023/09/12 00:55:49;;;;;;;11.40;4.70;;;;;;;;;;5033622;28;20042;-78
2023/09/12 00:58:34;;;;;;;9.55;4.53;;;;;;;;;;5025802;28;20049;-80
2023/09/12 01:01:20;;;;;;;11.65;4.80;;;;;;;;;;5033832;28;20042;-80
2023/09/12 01:04:06;;;;;;;10.25;4.90;;;;;;;;;;5033664;28;20042;-80
2023/09/12 01:06:52;;;;;;;17.65;6.00;;;;;;;;;;5039626;28;20042;-80
2023/09/12 01:09:36;;;;;;;12.73;5.25;;;;;;;;;;5024894;28;20054;-79
2023/09/12 01:12:21;;;;;;;11.73;4.68;;;;;;;;;;5018384;28;20400;-78
2023/09/12 01:15:13;;;;;;;9.43;5.03;;;;;;;;;;5024853;28;20045;-79
2023/09/12 01:18:00;;;;;;;14.95;5.00;;;;;;;;;;5039523;28;20046;-79
2023/09/12 01:21:24;;;;;;;13.70;5.05;;;;;;;;;;5033557;28;20045;-77
2023/09/12 01:24:31;;;;;;;9.95;4.75;;;;;;;;;;5025416;28;20041;-80
2023/09/12 01:27:30;;;;;;;9.75;5.10;;;;;;;;;;5039491;28;20045;-78
2023/09/12 01:30:20;;;;;;;8.55;4.18;;;;;;;;;;5051356;28;20053;-78
2023/09/12 01:33:06;;;;;;;12.63;5.55;;;;;;;;;;5053703;28;20053;-80
2023/09/12 01:35:54;;;;;;;15.85;5.22;;;;;;;;;;5038392;28;20041;-80
2023/09/12 01:38:39;;;;;;;15.18;4.90;;;;;;;;;;5034883;28;20053;-78
2023/09/12 01:41:26;;;;;;;8.35;5.18;;;;;;;;;;5048921;28;20049;-79
2023/09/12 01:44:12;;;;;;;13.07;5.03;;;;;;;;;;5057100;28;20045;-79
2023/09/12 01:47:03;;;;;;;9.57;4.63;;;;;;;;;;5056976;28;20041;-79
2023/09/12 01:49:51;;;;;;;9.63;4.35;;;;;;;;;;5056200;28;20045;-78
2023/09/12 01:52:37;;;;;;;8.20;4.88;;;;;;;;;;5048798;28;20048;-78
2023/09/12 01:55:25;;;;;;;7.80;4.43;;;;;;;;;;5057404;28;20041;-79
2023/09/12 01:58:11;;;;;;;9.55;5.05;;;;;;;;;;5048534;28;20056;-80
2023/09/12 02:00:57;;;;;;;9.23;5.05;;;;;;;;;;5035144;28;20037;-81
2023/09/12 02:03:42;;;;;;;9.70;4.57;;;;;;;;;;5048563;28;20395;-79
2023/09/12 02:06:27;;;;;;;9.95;4.85;;;;;;;;;;5041888;28;20045;-81
2023/09/12 02:09:13;;;;;;;8.75;4.82;;;;;;;;;;5057127;28;20483;-81
2023/09/12 02:11:58;;;;;;;10.32;4.53;;;;;;;;;;5047982;28;20041;-79
2023/09/12 02:14:44;;;;;;;11.65;4.68;;;;;;;;;;5048783;28;20048;-79
2023/09/12 02:17:29;;;;;;;9.65;4.72;;;;;;;;;;5033707;28;20045;-79
2023/09/12 02:20:15;;;;;;;8.60;4.20;;;;;;;;;;5056836;28;20053;-79
2023/09/12 02:23:00;;;;;;;7.60;4.55;;;;;;;;;;5029955;28;20049;-79
2023/09/12 02:25:46;;;;;;;9.90;4.78;;;;;;;;;;5056421;28;20040;-79
2023/09/12 02:28:32;;;;;;;13.23;5.03;;;;;;;;;;5056703;28;20045;-79
2023/09/12 02:31:17;;;;;;;11.10;4.75;;;;;;;;;;5056466;28;20041;-78
2023/09/12 02:34:03;;;;;;;10.75;5.30;;;;;;;;;;5048318;28;20399;-77
2023/09/12 02:36:49;;;;;;;7.70;5.15;;;;;;;;;;5061931;28;20074;-80
2023/09/12 02:39:34;;;;;;;15.90;5.63;;;;;;;;;;5047475;28;20048;-80
2023/09/12 02:42:19;;;;;;;11.45;5.65;;;;;;;;;;5056383;28;20049;-79
2023/09/12 02:45:06;;;;;;;11.38;5.15;;;;;;;;;;5056149;28;20049;-79
2023/09/12 02:47:52;;;;;;;13.57;5.50;;;;;;;;;;5047496;28;20040;-79
2023/09/12 02:50:37;;;;;;;10.30;5.50;;;;;;;;;;5047877;28;20487;-80
2023/09/12 02:53:23;;;;;;;13.75;4.93;;;;;;;;;;5055680;28;20041;-79
2023/09/12 02:56:08;;;;;;;8.40;4.55;;;;;;;;;;5041215;28;20041;-78
2023/09/12 02:58:53;;;;;;;8.63;4.65;;;;;;;;;;5056088;28;20041;-80
2023/09/12 03:01:39;;;;;;;9.85;4.82;;;;;;;;;;5047140;28;20395;-79
2023/09/12 03:04:29;;;;;;;10.13;4.90;;;;;;;;;;5047530;28;20049;-80
2023/09/12 03:07:14;;;;;;;8.35;5.13;;;;;;;;;;5046924;28;20052;-80
2023/09/12 03:09:59;;;;;;;17.65;5.40;;;;;;;;;;5047689;28;20395;-80
2023/09/12 03:12:45;;;;;;;8.07;4.95;;;;;;;;;;5040777;28;20045;-79
2023/09/12 03:15:36;;;;;;;11.05;5.13;;;;;;;;;;5046642;28;20041;-78
2023/09/12 03:18:21;;;;;;;8.05;4.88;;;;;;;;;;5055756;28;20404;-80
2023/09/12 03:21:07;;;;;;;11.95;5.20;;;;;;;;;;5046993;28;20041;-81
2023/09/12 03:23:52;;;;;;;9.57;5.07;;;;;;;;;;5027637;28;20046;-79
2023/09/12 03:26:38;;;;;;;12.40;5.15;;;;;;;;;;5027600;28;20053;-80
2023/09/12 03:29:23;;;;;;;8.05;4.72;;;;;;;;;;5027115;28;20480;-80
2023/09/12 03:32:08;;;;;;;10.77;5.40;;;;;;;;;;5013671;28;20424;-79
2023/09/12 03:34:54;;;;;;;10.38;5.97;;;;;;;;;;5035427;28;20049;-76
2023/09/12 03:37:42;;;;;;;7.35;5.20;;;;;;;;;;5026894;28;20041;-79
2023/09/12 03:40:30;;;;;;;11.90;6.05;;;;;;;;;;5027223;28;20045;-78
2023/09/12 03:43:16;;;;;;;9.40;5.28;;;;;;;;;;5026650;28;20049;-78
2023/09/12 03:46:01;;;;;;;10.05;5.70;;;;;;;;;;5013273;28;20045;-79
2023/09/12 03:48:47;;;;;;;12.93;5.88;;;;;;;;;;5035053;28;20049;-78
2023/09/12 03:51:34;;;;;;;9.93;5.22;;;;;;;;;;5026806;28;20045;-79
2023/09/12 03:54:20;;;;;;;8.50;4.80;;;;;;;;;;5026851;28;20045;-79
2023/09/12 03:57:05;;;;;;;10.13;4.93;;;;;;;;;;5024338;28;20041;-79
2023/09/12 03:59:52;;;;;;;11.82;5.43;;;;;;;;;;5034176;28;20479;-79
2023/09/12 04:02:37;;;;;;;12.82;5.50;;;;;;;;;;5025800;28;20045;-78
2023/09/12 04:05:25;;;;;;;11.43;5.35;;;;;;;;;;5000593;28;20042;-79
2023/09/12 04:08:11;;;;;;;16.33;5.85;;;;;;;;;;5017352;28;20496;-80
2023/09/12 04:10:56;;;;;;;11.35;5.65;;;;;;;;;;5034108;28;20407;-80
2023/09/12 04:13:42;;;;;;;10.50;5.43;;;;;;;;;;5040052;28;20041;-78
2023/09/12 04:16:27;;;;;;;7.47;5.22;;;;;;;;;;5009191;28;20049;-79
2023/09/12 04:19:14;;;;;;;12.73;5.43;;;;;;;;;;5007120;28;20042;-77
2023/09/12 04:22:00;;;;;;;18.35;6.57;;;;;;;;;;5010375;28;20046;-79
2023/09/12 04:24:45;;;;;;;11.95;5.97;;;;;;;;;;5039900;28;20046;-78
2023/09/12 04:27:31;;;;;;;11.35;5.60;;;;;;;;;;5034448;28;20042;-77
2023/09/12 04:30:16;;;;;;;15.35;6.07;;;;;;;;;;5034029;28;20049;-78
2023/09/12 04:33:02;;;;;;;11.85;5.50;;;;;;;;;;5026197;28;20045;-78
2023/09/12 04:35:48;;;;;;;10.23;5.38;;;;;;;;;;5026004;28;20045;-79
2023/09/12 04:38:33;;;;;;;13.20;5.28;;;;;;;;;;5027448;28;20042;-80
2023/09/12 04:41:19;;;;;;;16.63;5.30;;;;;;;;;;5046460;28;20040;-79
2023/09/12 04:44:04;;;;;;;10.05;4.68;;;;;;;;;;5046233;28;20057;-78
2023/09/12 04:46:50;;;;;;;14.15;5.07;;;;;;;;;;5044702;28;20049;-78
2023/09/12 04:49:36;;;;;;;8.55;4.72;;;;;;;;;;5045856;28;20044;-78
2023/09/12 04:52:21;;;;;;;8.63;4.80;;;;;;;;;;5025351;28;20057;-79
2023/09/12 04:55:07;;;;;;;15.10;4.90;;;;;;;;;;5042735;28;20049;-79
2023/09/12 04:57:52;;;;;;;9.82;4.95;;;;;;;;;;5053783;28;20052;-78
2023/09/12 05:00:40;;;;;;;14.50;7.20;;;;;;;;;;5038429;28;20048;-77
2023/09/12 05:03:26;;;;;;;11.25;5.60;;;;;;;;;;5056745;28;20049;-79
2023/09/12 05:06:12;;;;;;;15.65;6.50;;;;;;;;;;5053512;28;20388;-80
2023/09/12 05:08:58;;;;;;;16.85;5.90;;;;;;;;;;5053555;28;20041;-80
2023/09/12 05:11:44;;;;;;;8.98;5.55;;;;;;;;;;5052825;28;20472;-77
2023/09/12 05:14:29;;;;;;;15.50;5.55;;;;;;;;;;5056772;28;20391;-78
2023/09/12 05:17:14;;;;;;;20.80;7.85;;;;;;;;;;5053671;28;20049;-80
2023/09/12 05:20:00;;;;;;;26.55;9.65;;;;;;;;;;5051204;28;20045;-80
2023/09/12 05:22:46;;;;;;;30.20;15.25;;;;;;;;;;5039965;28;20049;-80
2023/09/12 05:25:31;;;;;;;53.08;32.13;;;;;;;;;;5060108;28;20053;-80
2023/09/12 05:28:17;;;;;;;33.40;19.25;;;;;;;;;;5056696;28;20041;-79
2023/09/12 05:31:05;;;;;;;32.13;12.48;;;;;;;;;;5064269;28;20045;-78
2023/09/12 05:33:52;;;;;;;19.00;10.48;;;;;;;;;;5035740;28;20045;-80
2023/09/12 05:36:37;;;;;;;21.30;8.98;;;;;;;;;;5048940;28;20044;-79
2023/09/12 05:39:23;;;;;;;19.23;9.23;;;;;;;;;;5058763;28;20049;-79
2023/09/12 05:42:09;;;;;;;18.10;7.47;;;;;;;;;;5049947;28;20045;-80
2023/09/12 05:44:54;;;;;;;13.90;6.95;;;;;;;;;;5049142;28;20471;-80
2023/09/12 05:47:40;;;;;;;14.70;6.55;;;;;;;;;;5063413;28;20053;-78
2023/09/12 05:50:25;;;;;;;20.45;7.30;;;;;;;;;;5053521;28;20052;-79
2023/09/12 05:53:11;;;;;;;14.20;6.50;;;;;;;;;;5043731;28;20411;-78
2023/09/12 05:55:57;;;;;;;21.40;6.85;;;;;;;;;;5051709;28;20041;-80
2023/09/12 05:58:42;;;;;;;17.88;7.40;;;;;;;;;;5026911;28;20057;-79
2023/09/12 06:01:28;;;;;;;16.88;6.22;;;;;;;;;;5035822;28;20041;-79
2023/09/12 06:04:13;;;;;;;22.48;6.15;;;;;;;;;;5039497;28;20044;-78
2023/09/12 06:06:59;;;;;;;24.13;6.82;;;;;;;;;;5033177;28;20049;-79
2023/09/12 06:09:45;;;;;;;19.95;6.85;;;;;;;;;;5047727;28;20048;-79
2023/09/12 06:12:32;;;;;;;20.15;7.85;;;;;;;;;;5045739;28;20049;-78
2023/09/12 06:15:18;;;;;;;21.52;8.40;;;;;;;;;;5042305;28;20045;-79
2023/09/12 06:18:04;;;;;;;18.80;8.98;;;;;;;;;;5043342;28;20037;-79
2023/09/12 06:20:49;;;;;;;19.48;8.27;;;;;;;;;;5043311;28;20041;-79
2023/09/12 06:23:35;;;;;;;19.47;10.10;;;;;;;;;;5003284;28;1178367;-79
2023/09/12 06:26:20;;;;;;;24.85;10.60;;;;;;;;;;5046599;28;20270;-79
2023/09/12 06:29:06;;;;;;;18.75;9.57;;;;;;;;;;5046965;28;20041;-78
2023/09/12 06:31:51;;;;;;;14.05;8.13;;;;;;;;;;5047188;28;20045;-78
2023/09/12 06:34:37;;;;;;;23.23;8.60;;;;;;;;;;5046654;28;20623;-78
2023/09/12 06:37:22;;;;;;;23.02;7.18;;;;;;;;;;5045646;28;20053;-80
2023/09/12 06:40:08;;;;;;;15.07;7.68;;;;;;;;;;5037254;28;20435;-81
2023/09/12 06:42:54;;;;;;;22.27;8.32;;;;;;;;;;5047104;28;20053;-80
2023/09/12 06:45:42;;;;;;;19.25;8.10;;;;;;;;;;5031297;28;20049;-79
2023/09/12 06:48:28;;;;;;;13.05;6.00;;;;;;;;;;5046693;28;20467;-77
2023/09/12 06:51:14;;;;;;;14.57;6.57;;;;;;;;;;5046566;28;20041;-79
2023/09/12 06:54:00;;;;;;;21.20;7.05;;;;;;;;;;5038413;28;20491;-79
2023/09/12 06:56:45;;;;;;;16.77;6.53;;;;;;;;;;5031580;28;20064;-79
2023/09/12 06:59:31;;;;;;;15.88;6.35;;;;;;;;;;5041793;28;20403;-79
2023/09/12 07:02:18;;;;;;;16.50;6.03;;;;;;;;;;5043849;28;20041;-79
2023/09/12 07:05:04;;;;;;;15.40;6.15;;;;;;;;;;5051791;28;20472;-80
2023/09/12 07:07:51;;;;;;;19.10;7.18;;;;;;;;;;5037542;28;20041;-79
2023/09/12 07:10:36;;;;;;;25.92;7.45;;;;;;;;;;5051990;28;20048;-77
2023/09/12 07:13:22;;;;;;;15.55;7.20;;;;;;;;;;5051819;28;20049;-80
2023/09/12 07:16:08;;;;;;;26.02;7.03;;;;;;;;;;5036896;28;20041;-80
2023/09/12 07:18:53;;;;;;;28.35;7.35;;;;;;;;;;5043153;28;20037;-79
2023/09/12 07:21:39;;;;;;;24.42;6.60;;;;;;;;;;5050983;28;20053;-79
2023/09/12 07:24:26;;;;;;;18.98;6.32;;;;;;;;;;5051365;28;20033;-78
2023/09/12 07:27:11;;;;;;;19.05;6.53;;;;;;;;;;5051031;28;20037;-80
2023/09/12 07:29:57;;;;;;;18.25;6.00;;;;;;;;;;5051908;28;20052;-78
2023/09/12 07:32:42;;;;;;;14.73;6.45;;;;;;;;;;5051786;28;20056;-79
2023/09/12 07:35:28;;;;;;;18.25;6.13;;;;;;;;;;5050824;28;20041;-79
2023/09/12 07:38:15;;;;;;;14.02;5.57;;;;;;;;;;5051367;28;20048;-80
2023/09/12 07:41:00;;;;;;;19.00;5.95;;;;;;;;;;5051074;28;20033;-78
2023/09/12 07:43:46;;;;;;;14.35;5.28;;;;;;;;;;5051406;28;20045;-79
2023/09/12 07:46:31;;;;;;;18.67;5.82;;;;;;;;;;5050946;28;20041;-79
2023/09/12 07:49:16;;;;;;;16.20;5.25;;;;;;;;;;5051717;28;20041;-79
2023/09/12 07:52:02;;;;;;;16.40;5.18;;;;;;;;;;5051033;28;20037;-78
2023/09/12 07:54:50;;;;;;;18.30;5.78;;;;;;;;;;5041333;28;20483;-79
2023/09/12 07:57:36;;;;;;;14.43;5.55;;;;;;;;;;5050808;28;20487;-80
2023/09/12 08:00:21;;;;;;;13.27;5.70;;;;;;;;;;5051179;28;20040;-78
2023/09/12 08:03:05;;;;;;;17.63;5.53;;;;;;;;;;5035806;28;20049;-79
2023/09/12 08:05:57;;;;;;;14.63;5.47;;;;;;;;;;5035790;28;20418;-78
2023/09/12 08:08:43;;;;;;;15.65;5.10;;;;;;;;;;5050431;28;20052;-77
2023/09/12 08:11:28;;;;;;;15.82;5.95;;;;;;;;;;5050664;28;20044;-78
2023/09/12 08:14:14;;;;;;;12.15;5.18;;;;;;;;;;5050822;28;20419;-79
2023/09/12 08:16:59;;;;;;;14.65;5.43;;;;;;;;;;5050318;28;20494;-78
2023/09/12 08:19:45;;;;;;;16.52;5.57;;;;;;;;;;5035755;28;20045;-79
2023/09/12 08:22:31;;;;;;;13.60;6.03;;;;;;;;;;5050538;28;20041;-80
2023/09/12 08:25:16;;;;;;;12.98;5.60;;;;;;;;;;5050295;28;20053;-80
2023/09/12 08:28:02;;;;;;;13.38;5.88;;;;;;;;;;5050518;28;20041;-78
2023/09/12 08:30:47;;;;;;;16.45;5.70;;;;;;;;;;5050885;28;20044;-78
2023/09/12 08:33:33;;;;;;;18.85;5.50;;;;;;;;;;5050486;28;20045;-80
2023/09/12 08:36:20;;;;;;;14.63;5.80;;;;;;;;;;5049687;28;20037;-80
2023/09/12 08:39:08;;;;;;;15.68;5.80;;;;;;;;;;5046857;28;20044;-80
2023/09/12 08:41:54;;;;;;;14.52;4.95;;;;;;;;;;5031251;28;20049;-79
2023/09/12 08:44:41;;;;;;;9.63;5.32;;;;;;;;;;5046095;28;20044;-79
2023/09/12 08:47:27;;;;;;;13.48;5.22;;;;;;;;;;5045705;28;20045;-78
2023/09/12 08:50:14;;;;;;;15.70;5.78;;;;;;;;;;5043691;28;20041;-77
2023/09/12 08:52:59;;;;;;;12.90;6.05;;;;;;;;;;5044479;28;20052;-78
2023/09/12 08:55:44;;;;;;;15.18;5.25;;;;;;;;;;5030235;28;20388;-77
2023/09/12 08:58:35;;;;;;;12.82;4.60;;;;;;;;;;5029994;28;20045;-78
2023/09/12 09:01:22;;;;;;;14.93;5.70;;;;;;;;;;5044809;28;20041;-78
2023/09/12 09:04:07;;;;;;;11.95;4.88;;;;;;;;;;5030054;28;20056;-78
2023/09/12 09:06:55;;;;;;;10.60;4.50;;;;;;;;;;5045732;28;20088;-76
2023/09/12 09:09:40;;;;;;;11.05;5.20;;;;;;;;;;5045001;28;20060;-79
2023/09/12 09:12:27;;;;;;;21.75;5.22;;;;;;;;;;5030434;28;20056;-79
2023/09/12 09:15:24;;;;;;;13.40;5.30;;;;;;;;;;5044822;28;20048;-79
2023/09/12 09:18:11;;;;;;;11.10;5.43;;;;;;;;;;5044812;28;20115;-78
2023/09/12 09:20:57;;;;;;;10.88;4.85;;;;;;;;;;5044580;28;20044;-79
2023/09/12 09:23:47;;;;;;;9.45;4.70;;;;;;;;;;5044961;28;20048;-79
2023/09/12 09:26:58;;;;;;;12.23;4.70;;;;;;;;;;5044623;28;20060;-79
2023/09/12 09:29:48;;;;;;;11.85;5.00;;;;;;;;;;5044925;28;20049;-79
2023/09/12 09:32:33;;;;;;;12.13;4.63;;;;;;;;;;5044918;28;20049;-78
2023/09/12 09:35:19;;;;;;;9.82;4.28;;;;;;;;;;5045062;28;20037;-79
2023/09/12 09:38:06;;;;;;;12.88;5.03;;;;;;;;;;5044859;28;20407;-78
2023/09/12 09:40:51;;;;;;;9.90;4.85;;;;;;;;;;5047202;28;20037;-79
2023/09/12 09:43:37;;;;;;;13.40;4.03;;;;;;;;;;5047901;28;20749;-79
2023/09/12 09:46:22;;;;;;;13.68;4.70;;;;;;;;;;5047053;28;20040;-80
2023/09/12 09:49:10;;;;;;;14.45;5.25;;;;;;;;;;5029621;28;20053;-79
2023/09/12 09:51:58;;;;;;;12.85;4.50;;;;;;;;;;5044439;28;20053;-79
2023/09/12 09:54:45;;;;;;;10.38;4.07;;;;;;;;;;5048228;28;20049;-79
2023/09/12 09:57:36;;;;;;;7.90;4.00;;;;;;;;;;5049889;28;20037;-79
2023/09/12 10:00:22;;;;;;;10.68;5.13;;;;;;;;;;5052747;28;20041;-79
2023/09/12 10:03:09;;;;;;;11.48;4.90;;;;;;;;;;5053878;28;20387;-79
2023/09/12 10:05:58;;;;;;;13.40;5.70;;;;;;;;;;5053287;28;20399;-78
2023/09/12 10:08:44;;;;;;;10.77;4.35;;;;;;;;;;5052832;28;20048;-80
2023/09/12 10:11:32;;;;;;;5.95;3.20;;;;;;;;;;5050671;28;20040;-80
2023/09/12 10:14:20;;;;;;;14.25;4.10;;;;;;;;;;5048122;28;20041;-79
2023/09/12 10:17:05;;;;;;;16.30;4.93;;;;;;;;;;5048019;28;20041;-80
2023/09/12 10:20:09;;;;;;;8.80;3.20;;;;;;;;;;5039133;28;20033;-79
2023/09/12 10:23:08;;;;;;;9.13;3.25;;;;;;;;;;5048238;28;20045;-79
2023/09/12 10:25:54;;;;;;;8.05;3.53;;;;;;;;;;5047389;28;20066;-81
2023/09/12 10:28:43;;;;;;;14.45;3.50;;;;;;;;;;5047460;28;20049;-79
2023/09/12 10:31:29;;;;;;;7.25;3.30;;;;;;;;;;5047424;28;20060;-81
2023/09/12 10:34:15;;;;;;;8.43;3.67;;;;;;;;;;5049293;28;20041;-82
2023/09/12 10:37:04;;;;;;;9.40;3.42;;;;;;;;;;5048483;28;20049;-80
2023/09/12 10:39:50;;;;;;;10.20;3.45;;;;;;;;;;5047540;28;20041;-81
2023/09/12 10:42:35;;;;;;;6.55;2.97;;;;;;;;;;5047212;28;21154;-80
2023/09/12 10:45:21;;;;;;;10.70;3.38;;;;;;;;;;5032675;28;20041;-80
2023/09/12 10:48:06;;;;;;;8.32;3.53;;;;;;;;;;5048177;28;20037;-81
2023/09/12 10:50:51;;;;;;;8.88;3.47;;;;;;;;;;5047766;28;20048;-80
2023/09/12 10:53:37;;;;;;;11.32;3.47;;;;;;;;;;5032373;28;20045;-79
2023/09/12 10:56:29;;;;;;;10.27;3.30;;;;;;;;;;5045824;28;20045;-78
2023/09/12 10:59:14;;;;;;;11.65;4.00;;;;;;;;;;5047238;28;20049;-80
2023/09/12 11:02:30;;;;;;;14.15;3.75;;;;;;;;;;5040793;28;20041;-79
2023/09/12 11:05:27;;;;;;;17.30;3.40;;;;;;;;;;5046964;28;20033;-78
2023/09/12 11:08:13;;;;;;;7.93;3.40;;;;;;;;;;5045738;28;20041;-77
2023/09/12 11:11:24;;;;;;;8.82;3.30;;;;;;;;;;5039071;28;20048;-78
2023/09/12 11:14:11;;;;;;;14.23;3.65;;;;;;;;;;5053839;28;20053;-79
2023/09/12 11:17:10;;;;;;;14.40;3.88;;;;;;;;;;5046912;28;20041;-79
2023/09/12 11:20:04;;;;;;;16.88;3.33;;;;;;;;;;5046740;28;20045;-80
2023/09/12 11:22:50;;;;;;;14.25;3.50;;;;;;;;;;5046403;28;20049;-79
2023/09/12 11:25:36;;;;;;;11.75;3.45;;;;;;;;;;5045816;28;20137;-78
2023/09/12 11:28:21;;;;;;;8.73;3.35;;;;;;;;;;5046945;28;20037;-79
2023/09/12 11:31:06;;;;;;;11.65;3.80;;;;;;;;;;5046072;28;20578;-80
2023/09/12 11:33:53;;;;;;;11.00;3.38;;;;;;;;;;5045652;28;20051;-79
2023/09/12 11:36:42;;;;;;;12.63;3.55;;;;;;;;;;5046489;28;20045;-80
2023/09/12 11:39:32;;;;;;;11.25;3.17;;;;;;;;;;5044255;28;20044;-79
2023/09/12 11:42:19;;;;;;;7.03;3.20;;;;;;;;;;5045792;28;20539;-77
2023/09/12 11:45:08;;;;;;;13.80;3.50;;;;;;;;;;5043428;28;20431;-80
2023/09/12 11:47:53;;;;;;;12.05;3.22;;;;;;;;;;5046242;28;20487;-79
2023/09/12 11:50:41;;;;;;;11.57;3.00;;;;;;;;;;5046318;28;20045;-79
2023/09/12 11:53:30;;;;;;;10.55;3.25;;;;;;;;;;5046113;28;20467;-78
2023/09/12 11:56:15;;;;;;;16.13;3.70;;;;;;;;;;5046190;28;20404;-80
2023/09/12 11:59:01;;;;;;;11.15;3.00;;;;;;;;;;5045442;28;20048;-79
2023/09/12 12:01:47;;;;;;;13.13;3.05;;;;;;;;;;5045908;28;20041;-80
2023/09/12 12:04:32;;;;;;;13.40;3.05;;;;;;;;;;5031125;28;20045;-80
2023/09/12 12:07:18;;;;;;;12.18;3.88;;;;;;;;;;5045670;28;20045;-79
2023/09/12 12:10:03;;;;;;;11.27;3.47;;;;;;;;;;5030840;28;20045;-79
2023/09/12 12:12:53;;;;;;;10.15;3.40;;;;;;;;;;5045613;28;20048;-80
2023/09/12 12:15:38;;;;;;;10.05;3.63;;;;;;;;;;5037527;28;20044;-79
2023/09/12 12:18:23;;;;;;;12.82;3.42;;;;;;;;;;5041550;28;20053;-80
2023/09/12 12:21:09;;;;;;;14.23;3.50;;;;;;;;;;5044514;28;20037;-80
2023/09/12 12:23:59;;;;;;;14.02;3.50;;;;;;;;;;5045548;28;20045;-80
2023/09/12 12:26:44;;;;;;;15.57;2.97;;;;;;;;;;5045588;28;20045;-79
2023/09/12 12:29:31;;;;;;;16.38;3.60;;;;;;;;;;5043617;28;20056;-81
2023/09/12 12:32:16;;;;;;;11.23;3.22;;;;;;;;;;5044979;28;20419;-80
2023/09/12 12:35:02;;;;;;;15.73;3.15;;;;;;;;;;5038747;28;20048;-79
2023/09/12 12:37:53;;;;;;;15.02;2.67;;;;;;;;;;5045145;28;20049;-80
2023/09/12 12:40:42;;;;;;;14.48;2.90;;;;;;;;;;5044947;28;21430;-82
2023/09/12 12:43:28;;;;;;;9.90;3.10;;;;;;;;;;5045313;28;20052;-80
2023/09/12 12:46:14;;;;;;;13.60;3.22;;;;;;;;;;5044907;28;20653;-79
2023/09/12 12:49:00;;;;;;;12.75;3.28;;;;;;;;;;5045499;28;20199;-77
2023/09/12 12:51:46;;;;;;;16.17;3.20;;;;;;;;;;5044985;28;20037;-80
2023/09/12 12:54:35;;;;;;;9.40;3.05;;;;;;;;;;5044877;28;20049;-79
2023/09/12 12:57:21;;;;;;;13.23;3.50;;;;;;;;;;5044443;28;20037;-79
2023/09/12 13:00:07;;;;;;;14.73;3.10;;;;;;;;;;5043819;28;20049;-78
2023/09/12 13:02:53;;;;;;;16.80;3.90;;;;;;;;;;5043523;28;20045;-80
2023/09/12 13:05:40;;;;;;;11.57;3.30;;;;;;;;;;5045300;28;20048;-78
2023/09/12 13:08:26;;;;;;;19.02;3.10;;;;;;;;;;5044872;28;20040;-82
2023/09/12 13:11:14;;;;;;;11.32;3.20;;;;;;;;;;5045041;28;20435;-79
2023/09/12 13:13:59;;;;;;;12.88;3.05;;;;;;;;;;5044365;28;20040;-79
2023/09/12 13:16:44;;;;;;;12.45;3.53;;;;;;;;;;5044528;28;20037;-79
2023/09/12 13:19:30;;;;;;;8.95;2.92;;;;;;;;;;5029828;28;20033;-81
2023/09/12 13:22:15;;;;;;;17.50;3.08;;;;;;;;;;5045637;28;20057;-81
2023/09/12 13:25:00;;;;;;;13.55;3.15;;;;;;;;;;5040243;28;20471;-80
2023/09/12 13:27:46;;;;;;;6.35;3.10;;;;;;;;;;5047438;28;20045;-78
2023/09/12 13:30:31;;;;;;;11.18;3.63;;;;;;;;;;5045393;28;20033;-77
2023/09/12 13:33:17;;;;;;;13.35;3.75;;;;;;;;;;5049262;28;20049;-80
2023/09/12 13:36:03;;;;;;;16.77;3.53;;;;;;;;;;5051099;28;20041;-78
2023/09/12 13:38:50;;;;;;;10.50;3.17;;;;;;;;;;5047658;28;20037;-81
2023/09/12 13:41:36;;;;;;;11.05;3.28;;;;;;;;;;5051045;28;20045;-79
2023/09/12 13:44:21;;;;;;;16.63;3.60;;;;;;;;;;5033270;28;20037;-80
2023/09/12 13:47:07;;;;;;;11.20;3.30;;;;;;;;;;5047906;28;20049;-79
2023/09/12 13:49:53;;;;;;;15.48;3.20;;;;;;;;;;5033196;28;20041;-77
2023/09/12 13:52:38;;;;;;;10.25;3.47;;;;;;;;;;5048483;28;20048;-77
2023/09/12 13:55:24;;;;;;;12.52;3.60;;;;;;;;;;5048884;28;20041;-77
2023/09/12 13:58:09;;;;;;;7.35;3.40;;;;;;;;;;5045826;28;20041;-77
2023/09/12 14:00:55;;;;;;;12.10;2.92;;;;;;;;;;5047231;28;20041;-78
2023/09/12 14:03:41;;;;;;;15.20;3.13;;;;;;;;;;5047179;28;20045;-80
2023/09/12 14:06:26;;;;;;;10.13;3.50;;;;;;;;;;5047430;28;20482;-79
2023/09/12 14:09:11;;;;;;;11.40;3.72;;;;;;;;;;5046668;28;20048;-80
2023/09/12 14:11:57;;;;;;;18.00;4.00;;;;;;;;;;5038962;28;20318;-80
2023/09/12 14:14:42;;;;;;;7.88;3.30;;;;;;;;;;5046503;28;20049;-79
2023/09/12 14:17:28;;;;;;;10.48;3.63;;;;;;;;;;5047192;28;20057;-78
2023/09/12 14:20:17;;;;;;;11.20;4.05;;;;;;;;;;5046963;28;20041;-79
2023/09/12 14:23:03;;;;;;;7.85;3.22;;;;;;;;;;5046548;28;20049;-80
2023/09/12 14:25:48;;;;;;;11.15;3.30;;;;;;;;;;5045205;28;20707;-79
2023/09/12 14:28:34;;;;;;;12.13;3.40;;;;;;;;;;5047780;28;20403;-80
2023/09/12 14:31:19;;;;;;;9.05;3.05;;;;;;;;;;5047088;28;20107;-77
2023/09/12 14:34:06;;;;;;;10.70;3.20;;;;;;;;;;5052343;28;20045;-79
2023/09/12 14:36:51;;;;;;;8.35;3.45;;;;;;;;;;5051796;28;20152;-77
2023/09/12 14:39:37;;;;;;;12.65;4.10;;;;;;;;;;5035434;28;20713;-75
2023/09/12 14:42:22;;;;;;;14.20;3.72;;;;;;;;;;5051704;28;20045;-77
2023/09/12 14:45:10;;;;;;;8.77;3.40;;;;;;;;;;5051914;28;20041;-78
2023/09/12 14:47:55;;;;;;;8.48;3.75;;;;;;;;;;5052135;28;20045;-78
2023/09/12 14:50:40;;;;;;;11.68;3.35;;;;;;;;;;5052161;28;20049;-79
2023/09/12 14:53:27;;;;;;;7.88;2.83;;;;;;;;;;5050332;28;20383;-82
2023/09/12 14:56:11;;;;;;;10.68;3.00;;;;;;;;;;5042832;28;20053;-78
2023/09/12 14:58:56;;;;;;;6.68;3.33;;;;;;;;;;5051138;28;20045;-78
2023/09/12 15:01:42;;;;;;;10.27;3.50;;;;;;;;;;5050806;28;20037;-79
2023/09/12 15:04:28;;;;;;;10.35;3.30;;;;;;;;;;5051504;28;20491;-77
2023/09/12 15:07:13;;;;;;;9.07;3.20;;;;;;;;;;5052239;28;20041;-80
2023/09/12 15:09:58;;;;;;;11.02;3.60;;;;;;;;;;5052113;28;20399;-78
2023/09/12 15:12:44;;;;;;;7.47;3.40;;;;;;;;;;5052128;28;20467;-78
2023/09/12 15:15:30;;;;;;;8.23;3.85;;;;;;;;;;5051637;28;20041;-78
2023/09/12 15:18:15;;;;;;;8.85;3.20;;;;;;;;;;5049000;28;20045;-78
2023/09/12 15:21:01;;;;;;;7.65;3.10;;;;;;;;;;5046773;28;20103;-79
2023/09/12 15:23:46;;;;;;;10.82;3.17;;;;;;;;;;5047016;28;20037;-78
2023/09/12 15:26:35;;;;;;;10.38;3.58;;;;;;;;;;5046869;28;20037;-79
2023/09/12 15:29:21;;;;;;;7.78;3.03;;;;;;;;;;5046227;28;20049;-77
2023/09/12 15:32:06;;;;;;;14.13;4.05;;;;;;;;;;5046233;28;20415;-77
2023/09/12 15:34:52;;;;;;;7.97;3.35;;;;;;;;;;5046248;28;20049;-78
2023/09/12 15:37:37;;;;;;;9.77;3.58;;;;;;;;;;5044793;28;20389;-78
2023/09/12 15:40:24;;;;;;;11.15;3.08;;;;;;;;;;5046856;28;20033;-78
2023/09/12 15:43:10;;;;;;;8.60;3.30;;;;;;;;;;5046084;28;20029;-76
2023/09/12 15:45:56;;;;;;;12.90;3.65;;;;;;;;;;5046525;28;20033;-78
2023/09/12 15:48:40;;;;;;;9.02;2.92;;;;;;;;;;5045590;28;20531;-77
2023/09/12 15:51:25;;;;;;;8.20;2.95;;;;;;;;;;5045945;28;20044;-78
2023/09/12 15:54:11;;;;;;;8.85;3.38;;;;;;;;;;5031400;28;20041;-78
2023/09/12 15:56:56;;;;;;;8.73;3.10;;;;;;;;;;5045275;28;20041;-78
2023/09/12 15:59:42;;;;;;;8.18;3.13;;;;;;;;;;5046415;28;20049;-78
2023/09/12 16:02:28;;;;;;;9.00;3.10;;;;;;;;;;5045680;28;20049;-78
2023/09/12 16:05:13;;;;;;;11.00;3.25;;;;;;;;;;5045948;28;20391;-77
2023/09/12 16:07:59;;;;;;;13.85;3.53;;;;;;;;;;5052754;28;20049;-79
2023/09/12 16:10:44;;;;;;;15.40;3.28;;;;;;;;;;5050881;28;20048;-77
2023/09/12 16:13:30;;;;;;;12.88;3.40;;;;;;;;;;5045899;28;20048;-79
2023/09/12 16:16:15;;;;;;;8.98;3.20;;;;;;;;;;5045323;28;20045;-77
2023/09/12 16:19:04;;;;;;;9.07;3.25;;;;;;;;;;5044603;28;20613;-80
2023/09/12 16:21:50;;;;;;;6.55;3.13;;;;;;;;;;5043407;28;20496;-78
2023/09/12 16:24:36;;;;;;;17.63;4.93;;;;;;;;;;5043404;28;20488;-77
2023/09/12 16:27:22;;;;;;;50.65;25.40;;;;;;;;;;5044074;28;20427;-78